sensor_id;sensor_type;location;lat;lon;timestamp;pressure;altitude;pressure_sealevel;temperature;humidity
38812;BME280;24553;51.640;-0.752;2023-03-01T00:01:31;102492.91;;;6.97;100.00
38812;BME280;24553;51.640;-0.752;2023-03-01T00:03:57;102493.63;;;6.99;100.00
38812;BME280;24553;51.640;-0.752;2023-03-01T00:06:23;102494.59;;;6.98;100.00
38812;BME280;24553;51.640;-0.752;2023-03-01T00:08:49;102485.09;;;6.95;100.00
38812;BME280;24553;51.640;-0.752;2023-03-01T00:11:20;102492.78;;;6.87;100.00
38812;BME280;24553;51.640;-0.752;2023-03-01T00:13:47;102496.25;;;6.76;100.00
38812;BME280;24553;51.640;-0.752;2023-03-01T00:16:16;102492.03;;;6.74;100.00
38812;BME280;24553;51.640;-0.752;2023-03-01T00:18:42;102496.59;;;6.72;100.00
38812;BME280;24553;51.640;-0.752;2023-03-01T00:21:07;102496.69;;;6.70;100.00
38812;BME280;24553;51.640;-0.752;2023-03-01T00:23:36;102489.13;;;6.66;100.00
38812;BME280;24553;51.640;-0.752;2023-03-01T00:26:02;102497.03;;;6.66;100.00
38812;BME280;24553;51.640;-0.752;2023-03-01T00:28:31;102497.59;;;6.58;100.00
38812;BME280;24553;51.640;-0.752;2023-03-01T00:31:02;102499.53;;;6.56;100.00
38812;BME280;24553;51.640;-0.752;2023-03-01T00:33:28;102495.09;;;6.57;100.00
38812;BME280;24553;51.640;-0.752;2023-03-01T00:35:53;102509.94;;;6.58;100.00
38812;BME280;24553;51.640;-0.752;2023-03-01T00:38:18;102505.97;;;6.52;100.00
38812;BME280;24553;51.640;-0.752;2023-03-01T00:40:44;102504.09;;;6.54;100.00
38812;BME280;24553;51.640;-0.752;2023-03-01T00:43:09;102506.25;;;6.60;100.00
38812;BME280;24553;51.640;-0.752;2023-03-01T00:45:35;102496.91;;;6.56;100.00
38812;BME280;24553;51.640;-0.752;2023-03-01T00:48:00;102495.94;;;6.57;100.00
38812;BME280;24553;51.640;-0.752;2023-03-01T00:50:26;102503.19;;;6.42;100.00
38812;BME280;24553;51.640;-0.752;2023-03-01T00:52:55;102492.22;;;6.48;100.00
38812;BME280;24553;51.640;-0.752;2023-03-01T00:55:21;102491.00;;;6.52;100.00
38812;BME280;24553;51.640;-0.752;2023-03-01T00:57:46;102482.75;;;6.57;100.00
38812;BME280;24553;51.640;-0.752;2023-03-01T01:00:12;102495.69;;;6.60;100.00
38812;BME280;24553;51.640;-0.752;2023-03-01T01:02:37;102484.31;;;6.60;100.00
38812;BME280;24553;51.640;-0.752;2023-03-01T01:05:04;102493.69;;;6.64;100.00
38812;BME280;24553;51.640;-0.752;2023-03-01T01:07:29;102488.66;;;6.72;100.00
38812;BME280;24553;51.640;-0.752;2023-03-01T01:09:54;102491.41;;;6.70;100.00
38812;BME280;24553;51.640;-0.752;2023-03-01T01:12:20;102492.72;;;6.65;100.00
38812;BME280;24553;51.640;-0.752;2023-03-01T01:14:45;102489.34;;;6.63;100.00
38812;BME280;24553;51.640;-0.752;2023-03-01T01:17:11;102484.41;;;6.58;100.00
38812;BME280;24553;51.640;-0.752;2023-03-01T01:19:36;102484.66;;;6.55;100.00
38812;BME280;24553;51.640;-0.752;2023-03-01T01:22:02;102482.75;;;6.57;100.00
38812;BME280;24553;51.640;-0.752;2023-03-01T01:24:28;102474.13;;;6.55;100.00
38812;BME280;24553;51.640;-0.752;2023-03-01T01:26:53;102484.91;;;6.52;100.00
38812;BME280;24553;51.640;-0.752;2023-03-01T01:29:19;102472.44;;;6.54;100.00
38812;BME280;24553;51.640;-0.752;2023-03-01T01:31:44;102472.31;;;6.55;100.00
38812;BME280;24553;51.640;-0.752;2023-03-01T01:34:19;102480.84;;;6.59;100.00
38812;BME280;24553;51.640;-0.752;2023-03-01T01:36:48;102481.69;;;6.60;100.00
38812;BME280;24553;51.640;-0.752;2023-03-01T01:39:14;102481.69;;;6.60;100.00
38812;BME280;24553;51.640;-0.752;2023-03-01T01:41:41;102483.25;;;6.62;100.00
38812;BME280;24553;51.640;-0.752;2023-03-01T01:44:16;102468.16;;;6.64;100.00
38812;BME280;24553;51.640;-0.752;2023-03-01T01:49:37;102473.75;;;6.48;100.00
38812;BME280;24553;51.640;-0.752;2023-03-01T01:52:09;102469.19;;;6.50;100.00
38812;BME280;24553;51.640;-0.752;2023-03-01T01:57:12;102468.66;;;6.34;100.00
38812;BME280;24553;51.640;-0.752;2023-03-01T01:59:43;102467.34;;;6.28;100.00
38812;BME280;24553;51.640;-0.752;2023-03-01T02:02:09;102464.44;;;6.20;100.00
38812;BME280;24553;51.640;-0.752;2023-03-01T02:04:35;102463.38;;;6.23;100.00
38812;BME280;24553;51.640;-0.752;2023-03-01T02:07:10;102461.06;;;6.18;100.00
38812;BME280;24553;51.640;-0.752;2023-03-01T02:09:49;102465.34;;;6.08;100.00
38812;BME280;24553;51.640;-0.752;2023-03-01T02:12:19;102456.09;;;6.02;100.00
38812;BME280;24553;51.640;-0.752;2023-03-01T02:14:45;102455.28;;;6.02;100.00
38812;BME280;24553;51.640;-0.752;2023-03-01T02:17:16;102454.31;;;6.03;100.00
38812;BME280;24553;51.640;-0.752;2023-03-01T02:19:53;102451.16;;;5.98;100.00
38812;BME280;24553;51.640;-0.752;2023-03-01T02:22:33;102442.53;;;5.96;100.00
38812;BME280;24553;51.640;-0.752;2023-03-01T02:30:55;102443.19;;;5.86;100.00
38812;BME280;24553;51.640;-0.752;2023-03-01T02:33:39;102437.25;;;5.96;100.00
38812;BME280;24553;51.640;-0.752;2023-03-01T02:36:17;102440.88;;;5.95;100.00
38812;BME280;24553;51.640;-0.752;2023-03-01T02:38:44;102437.16;;;5.97;100.00
38812;BME280;24553;51.640;-0.752;2023-03-01T02:41:12;102434.09;;;5.90;100.00
38812;BME280;24553;51.640;-0.752;2023-03-01T02:43:38;102433.91;;;5.94;100.00
38812;BME280;24553;51.640;-0.752;2023-03-01T02:46:06;102428.47;;;5.84;100.00
38812;BME280;24553;51.640;-0.752;2023-03-01T02:48:47;102429.81;;;5.89;100.00
38812;BME280;24553;51.640;-0.752;2023-03-01T02:56:38;102418.75;;;5.84;100.00
38812;BME280;24553;51.640;-0.752;2023-03-01T02:59:03;102413.59;;;5.83;100.00
38812;BME280;24553;51.640;-0.752;2023-03-01T03:01:29;102401.63;;;5.79;100.00
38812;BME280;24553;51.640;-0.752;2023-03-01T03:04:05;102405.88;;;5.68;100.00
38812;BME280;24553;51.640;-0.752;2023-03-01T03:06:31;102407.88;;;5.65;100.00
38812;BME280;24553;51.640;-0.752;2023-03-01T03:08:57;102398.28;;;5.53;100.00
38812;BME280;24553;51.640;-0.752;2023-03-01T03:11:22;102401.34;;;5.46;100.00
38812;BME280;24553;51.640;-0.752;2023-03-01T03:13:48;102391.13;;;5.42;100.00
38812;BME280;24553;51.640;-0.752;2023-03-01T03:16:14;102395.38;;;5.32;100.00
38812;BME280;24553;51.640;-0.752;2023-03-01T03:18:40;102390.03;;;5.20;100.00
38812;BME280;24553;51.640;-0.752;2023-03-01T03:21:09;102387.13;;;5.12;100.00
38812;BME280;24553;51.640;-0.752;2023-03-01T03:23:38;102384.94;;;5.06;100.00
38812;BME280;24553;51.640;-0.752;2023-03-01T03:26:04;102381.16;;;4.97;100.00
38812;BME280;24553;51.640;-0.752;2023-03-01T03:28:31;102382.34;;;4.93;100.00
38812;BME280;24553;51.640;-0.752;2023-03-01T03:30:56;102382.75;;;4.87;100.00
38812;BME280;24553;51.640;-0.752;2023-03-01T03:33:22;102386.22;;;4.88;100.00
38812;BME280;24553;51.640;-0.752;2023-03-01T03:35:48;102383.19;;;4.81;100.00
38812;BME280;24553;51.640;-0.752;2023-03-01T03:38:16;102387.78;;;4.77;100.00
38812;BME280;24553;51.640;-0.752;2023-03-01T03:40:45;102378.34;;;4.75;100.00
38812;BME280;24553;51.640;-0.752;2023-03-01T03:43:13;102383.06;;;4.70;100.00
38812;BME280;24553;51.640;-0.752;2023-03-01T03:45:40;102373.00;;;4.64;100.00
38812;BME280;24553;51.640;-0.752;2023-03-01T03:48:08;102373.44;;;4.57;100.00
38812;BME280;24553;51.640;-0.752;2023-03-01T03:50:34;102370.81;;;4.45;100.00
38812;BME280;24553;51.640;-0.752;2023-03-01T03:53:01;102376.78;;;4.34;100.00
38812;BME280;24553;51.640;-0.752;2023-03-01T03:55:27;102371.19;;;4.26;100.00
38812;BME280;24553;51.640;-0.752;2023-03-01T03:57:57;102365.41;;;4.21;100.00
38812;BME280;24553;51.640;-0.752;2023-03-01T04:00:23;102357.75;;;4.18;100.00
38812;BME280;24553;51.640;-0.752;2023-03-01T04:02:50;102365.53;;;4.19;100.00
38812;BME280;24553;51.640;-0.752;2023-03-01T04:05:18;102357.94;;;4.14;100.00
38812;BME280;24553;51.640;-0.752;2023-03-01T04:07:44;102361.31;;;4.17;100.00
38812;BME280;24553;51.640;-0.752;2023-03-01T04:10:16;102358.47;;;4.20;100.00
38812;BME280;24553;51.640;-0.752;2023-03-01T04:12:42;102359.34;;;4.33;100.00
38812;BME280;24553;51.640;-0.752;2023-03-01T04:15:10;102349.56;;;4.35;100.00
38812;BME280;24553;51.640;-0.752;2023-03-01T04:17:43;102357.44;;;4.35;100.00
38812;BME280;24553;51.640;-0.752;2023-03-01T04:20:13;102347.16;;;4.32;100.00
38812;BME280;24553;51.640;-0.752;2023-03-01T04:22:40;102348.28;;;4.28;100.00
38812;BME280;24553;51.640;-0.752;2023-03-01T04:25:06;102349.25;;;4.27;100.00
38812;BME280;24553;51.640;-0.752;2023-03-01T04:27:33;102345.66;;;4.28;100.00
38812;BME280;24553;51.640;-0.752;2023-03-01T04:29:58;102344.00;;;4.27;100.00
38812;BME280;24553;51.640;-0.752;2023-03-01T04:32:24;102343.78;;;4.30;100.00
38812;BME280;24553;51.640;-0.752;2023-03-01T04:34:49;102348.53;;;4.37;100.00
38812;BME280;24553;51.640;-0.752;2023-03-01T04:37:14;102343.19;;;4.39;100.00
38812;BME280;24553;51.640;-0.752;2023-03-01T04:39:41;102350.84;;;4.42;100.00
38812;BME280;24553;51.640;-0.752;2023-03-01T04:42:11;102348.09;;;4.44;100.00
38812;BME280;24553;51.640;-0.752;2023-03-01T04:44:37;102356.31;;;4.52;100.00
38812;BME280;24553;51.640;-0.752;2023-03-01T04:47:03;102353.34;;;4.56;100.00
38812;BME280;24553;51.640;-0.752;2023-03-01T04:49:28;102343.34;;;4.62;100.00
38812;BME280;24553;51.640;-0.752;2023-03-01T04:51:54;102343.34;;;4.62;100.00
38812;BME280;24553;51.640;-0.752;2023-03-01T04:54:19;102345.88;;;4.63;100.00
38812;BME280;24553;51.640;-0.752;2023-03-01T04:56:44;102332.22;;;4.58;100.00
38812;BME280;24553;51.640;-0.752;2023-03-01T04:59:10;102335.38;;;4.50;100.00
38812;BME280;24553;51.640;-0.752;2023-03-01T05:01:38;102335.59;;;4.47;100.00
38812;BME280;24553;51.640;-0.752;2023-03-01T05:04:03;102333.50;;;4.52;100.00
38812;BME280;24553;51.640;-0.752;2023-03-01T05:06:30;102323.59;;;4.56;100.00
38812;BME280;24553;51.640;-0.752;2023-03-01T05:08:56;102333.19;;;4.57;100.00
38812;BME280;24553;51.640;-0.752;2023-03-01T05:11:22;102328.03;;;4.55;100.00
38812;BME280;24553;51.640;-0.752;2023-03-01T05:13:47;102329.91;;;4.53;100.00
38812;BME280;24553;51.640;-0.752;2023-03-01T05:16:12;102327.19;;;4.55;100.00
38812;BME280;24553;51.640;-0.752;2023-03-01T05:18:39;102327.06;;;4.56;100.00
38812;BME280;24553;51.640;-0.752;2023-03-01T05:21:10;102323.50;;;4.57;100.00
38812;BME280;24553;51.640;-0.752;2023-03-01T05:23:36;102324.56;;;4.68;100.00
38812;BME280;24553;51.640;-0.752;2023-03-01T05:26:03;102320.75;;;4.59;100.00
38812;BME280;24553;51.640;-0.752;2023-03-01T05:28:29;102308.50;;;4.59;100.00
38812;BME280;24553;51.640;-0.752;2023-03-01T05:30:55;102305.88;;;4.59;100.00
38812;BME280;24553;51.640;-0.752;2023-03-01T05:33:21;102308.06;;;4.53;100.00
38812;BME280;24553;51.640;-0.752;2023-03-01T05:35:47;102308.91;;;4.41;100.00
38812;BME280;24553;51.640;-0.752;2023-03-01T05:38:14;102309.13;;;4.25;100.00
38812;BME280;24553;51.640;-0.752;2023-03-01T05:40:41;102310.25;;;4.08;100.00
38812;BME280;24553;51.640;-0.752;2023-03-01T05:43:07;102313.06;;;3.92;100.00
38812;BME280;24553;51.640;-0.752;2023-03-01T05:45:33;102309.81;;;3.76;100.00
38812;BME280;24553;51.640;-0.752;2023-03-01T05:48:00;102307.16;;;3.63;100.00
38812;BME280;24553;51.640;-0.752;2023-03-01T05:50:27;102301.28;;;3.59;100.00
38812;BME280;24553;51.640;-0.752;2023-03-01T05:53:05;102303.44;;;3.53;100.00
38812;BME280;24553;51.640;-0.752;2023-03-01T05:55:32;102321.00;;;3.38;100.00
38812;BME280;24553;51.640;-0.752;2023-03-01T05:57:59;102311.03;;;3.30;100.00
38812;BME280;24553;51.640;-0.752;2023-03-01T06:00:27;102312.47;;;3.21;100.00
38812;BME280;24553;51.640;-0.752;2023-03-01T06:02:54;102313.78;;;3.14;100.00
38812;BME280;24553;51.640;-0.752;2023-03-01T06:05:20;102315.56;;;3.14;100.00
38812;BME280;24553;51.640;-0.752;2023-03-01T06:07:45;102310.53;;;3.11;100.00
38812;BME280;24553;51.640;-0.752;2023-03-01T06:10:12;102314.38;;;3.05;100.00
38812;BME280;24553;51.640;-0.752;2023-03-01T06:12:40;102312.13;;;2.99;100.00
38812;BME280;24553;51.640;-0.752;2023-03-01T06:15:06;102310.19;;;2.88;100.00
38812;BME280;24553;51.640;-0.752;2023-03-01T06:17:35;102307.03;;;2.83;100.00
38812;BME280;24553;51.640;-0.752;2023-03-01T06:20:10;102311.06;;;2.74;100.00
38812;BME280;24553;51.640;-0.752;2023-03-01T06:22:36;102311.53;;;2.67;100.00
38812;BME280;24553;51.640;-0.752;2023-03-01T06:25:02;102313.41;;;2.65;100.00
38812;BME280;24553;51.640;-0.752;2023-03-01T06:27:27;102314.25;;;2.65;100.00
38812;BME280;24553;51.640;-0.752;2023-03-01T06:29:53;102316.09;;;2.63;100.00
38812;BME280;24553;51.640;-0.752;2023-03-01T06:32:18;102318.16;;;2.58;100.00
38812;BME280;24553;51.640;-0.752;2023-03-01T06:34:43;102316.88;;;2.51;100.00
38812;BME280;24553;51.640;-0.752;2023-03-01T06:37:09;102316.31;;;2.46;100.00
38812;BME280;24553;51.640;-0.752;2023-03-01T06:39:35;102314.63;;;2.45;100.00
38812;BME280;24553;51.640;-0.752;2023-03-01T06:42:00;102326.03;;;2.44;100.00
38812;BME280;24553;51.640;-0.752;2023-03-01T06:44:26;102330.72;;;2.38;100.00
38812;BME280;24553;51.640;-0.752;2023-03-01T06:46:51;102325.66;;;2.35;100.00
38812;BME280;24553;51.640;-0.752;2023-03-01T06:49:17;102332.84;;;2.32;100.00
38812;BME280;24553;51.640;-0.752;2023-03-01T06:51:43;102329.66;;;2.27;100.00
38812;BME280;24553;51.640;-0.752;2023-03-01T06:54:09;102341.25;;;2.23;100.00
38812;BME280;24553;51.640;-0.752;2023-03-01T06:56:34;102341.53;;;2.18;100.00
38812;BME280;24553;51.640;-0.752;2023-03-01T06:58:59;102341.72;;;2.15;100.00
38812;BME280;24553;51.640;-0.752;2023-03-01T07:01:25;102348.88;;;2.11;100.00
38812;BME280;24553;51.640;-0.752;2023-03-01T07:03:50;102346.25;;;2.11;100.00
38812;BME280;24553;51.640;-0.752;2023-03-01T07:06:15;102353.38;;;2.09;100.00
38812;BME280;24553;51.640;-0.752;2023-03-01T07:08:41;102348.53;;;2.17;100.00
38812;BME280;24553;51.640;-0.752;2023-03-01T07:11:06;102348.09;;;2.25;100.00
38812;BME280;24553;51.640;-0.752;2023-03-01T07:13:32;102346.84;;;2.16;100.00
38812;BME280;24553;51.640;-0.752;2023-03-01T07:15:57;102348.44;;;2.19;100.00
38812;BME280;24553;51.640;-0.752;2023-03-01T07:18:23;102348.47;;;2.33;100.00
38812;BME280;24553;51.640;-0.752;2023-03-01T07:20:48;102344.38;;;2.44;100.00
38812;BME280;24553;51.640;-0.752;2023-03-01T07:23:14;102349.03;;;2.53;100.00
38812;BME280;24553;51.640;-0.752;2023-03-01T07:25:40;102349.34;;;2.48;100.00
38812;BME280;24553;51.640;-0.752;2023-03-01T07:28:05;102345.97;;;2.46;100.00
38812;BME280;24553;51.640;-0.752;2023-03-01T07:30:31;102348.09;;;2.39;100.00
38812;BME280;24553;51.640;-0.752;2023-03-01T07:32:57;102355.09;;;2.39;100.00
38812;BME280;24553;51.640;-0.752;2023-03-01T07:35:25;102355.75;;;2.43;100.00
38812;BME280;24553;51.640;-0.752;2023-03-01T07:37:51;102360.81;;;2.60;100.00
38812;BME280;24553;51.640;-0.752;2023-03-01T07:40:16;102370.38;;;2.90;100.00
38812;BME280;24553;51.640;-0.752;2023-03-01T07:42:41;102363.03;;;3.09;100.00
38812;BME280;24553;51.640;-0.752;2023-03-01T07:45:07;102364.50;;;3.27;100.00
38812;BME280;24553;51.640;-0.752;2023-03-01T07:47:33;102361.50;;;3.34;100.00
38812;BME280;24553;51.640;-0.752;2023-03-01T07:49:58;102359.13;;;3.43;100.00
38812;BME280;24553;51.640;-0.752;2023-03-01T07:52:24;102356.19;;;3.48;100.00
38812;BME280;24553;51.640;-0.752;2023-03-01T07:54:49;102354.78;;;3.57;100.00
38812;BME280;24553;51.640;-0.752;2023-03-01T07:57:14;102359.41;;;3.66;100.00
38812;BME280;24553;51.640;-0.752;2023-03-01T07:59:40;102350.34;;;3.97;100.00
38812;BME280;24553;51.640;-0.752;2023-03-01T08:02:05;102345.88;;;4.25;100.00
38812;BME280;24553;51.640;-0.752;2023-03-01T08:04:31;102354.38;;;4.41;100.00
38812;BME280;24553;51.640;-0.752;2023-03-01T08:06:58;102342.22;;;4.53;100.00
38812;BME280;24553;51.640;-0.752;2023-03-01T08:09:24;102334.72;;;4.72;100.00
38812;BME280;24553;51.640;-0.752;2023-03-01T08:11:49;102332.81;;;4.87;100.00
38812;BME280;24553;51.640;-0.752;2023-03-01T08:14:15;102333.59;;;5.00;100.00
38812;BME280;24553;51.640;-0.752;2023-03-01T08:16:40;102331.69;;;5.15;100.00
38812;BME280;24553;51.640;-0.752;2023-03-01T08:19:07;102334.25;;;5.28;100.00
38812;BME280;24553;51.640;-0.752;2023-03-01T08:21:33;102345.97;;;5.48;100.00
38812;BME280;24553;51.640;-0.752;2023-03-01T08:24:00;102333.53;;;5.74;100.00
38812;BME280;24553;51.640;-0.752;2023-03-01T08:26:26;102334.25;;;6.00;100.00
38812;BME280;24553;51.640;-0.752;2023-03-01T08:28:51;102336.19;;;6.21;100.00
38812;BME280;24553;51.640;-0.752;2023-03-01T08:31:23;102339.31;;;6.26;100.00
38812;BME280;24553;51.640;-0.752;2023-03-01T08:33:52;102336.69;;;6.26;100.00
38812;BME280;24553;51.640;-0.752;2023-03-01T08:36:21;102335.22;;;6.22;100.00
38812;BME280;24553;51.640;-0.752;2023-03-01T08:38:47;102331.75;;;6.21;100.00
38812;BME280;24553;51.640;-0.752;2023-03-01T08:41:13;102327.31;;;6.22;100.00
38812;BME280;24553;51.640;-0.752;2023-03-01T08:43:39;102329.63;;;6.26;100.00
38812;BME280;24553;51.640;-0.752;2023-03-01T08:46:04;102318.25;;;6.26;100.00
38812;BME280;24553;51.640;-0.752;2023-03-01T08:48:30;102314.66;;;6.27;100.00
38812;BME280;24553;51.640;-0.752;2023-03-01T08:50:55;102326.03;;;6.27;100.00
38812;BME280;24553;51.640;-0.752;2023-03-01T08:53:21;102314.78;;;6.25;100.00
38812;BME280;24553;51.640;-0.752;2023-03-01T08:55:46;102321.72;;;6.26;100.00
38812;BME280;24553;51.640;-0.752;2023-03-01T08:58:11;102324.13;;;6.41;100.00
38812;BME280;24553;51.640;-0.752;2023-03-01T09:00:37;102313.34;;;6.55;100.00
38812;BME280;24553;51.640;-0.752;2023-03-01T09:03:02;102318.50;;;6.45;100.00
38812;BME280;24553;51.640;-0.752;2023-03-01T09:05:28;102318.28;;;6.48;100.00
38812;BME280;24553;51.640;-0.752;2023-03-01T09:07:53;102317.69;;;6.56;100.00
38812;BME280;24553;51.640;-0.752;2023-03-01T09:10:18;102308.69;;;6.59;100.00
38812;BME280;24553;51.640;-0.752;2023-03-01T09:12:44;102304.97;;;6.61;100.00
38812;BME280;24553;51.640;-0.752;2023-03-01T09:15:09;102302.56;;;6.58;100.00
38812;BME280;24553;51.640;-0.752;2023-03-01T09:17:35;102297.06;;;6.61;100.00
38812;BME280;24553;51.640;-0.752;2023-03-01T09:20:00;102296.81;;;6.64;100.00
38812;BME280;24553;51.640;-0.752;2023-03-01T09:22:26;102302.81;;;6.66;100.00
38812;BME280;24553;51.640;-0.752;2023-03-01T09:24:51;102301.34;;;6.73;100.00
38812;BME280;24553;51.640;-0.752;2023-03-01T09:27:16;102302.31;;;6.84;100.00
38812;BME280;24553;51.640;-0.752;2023-03-01T09:29:44;102306.59;;;6.96;100.00
38812;BME280;24553;51.640;-0.752;2023-03-01T09:32:09;102304.19;;;7.04;100.00
38812;BME280;24553;51.640;-0.752;2023-03-01T09:34:35;102298.66;;;7.07;100.00
38812;BME280;24553;51.640;-0.752;2023-03-01T09:37:20;102297.00;;;7.06;100.00
38812;BME280;24553;51.640;-0.752;2023-03-01T09:39:46;102298.19;;;7.02;100.00
38812;BME280;24553;51.640;-0.752;2023-03-01T09:42:12;102292.06;;;7.13;100.00
38812;BME280;24553;51.640;-0.752;2023-03-01T09:44:59;102300.03;;;7.34;100.00
38812;BME280;24553;51.640;-0.752;2023-03-01T09:47:29;102282.31;;;7.57;100.00
38812;BME280;24553;51.640;-0.752;2023-03-01T09:50:15;102278.59;;;7.59;100.00
38812;BME280;24553;51.640;-0.752;2023-03-01T09:55:13;102277.94;;;7.46;100.00
38812;BME280;24553;51.640;-0.752;2023-03-01T09:57:49;102278.16;;;7.43;100.00
38812;BME280;24553;51.640;-0.752;2023-03-01T10:02:57;102273.94;;;7.52;100.00
38812;BME280;24553;51.640;-0.752;2023-03-01T10:05:36;102267.66;;;7.32;100.00
38812;BME280;24553;51.640;-0.752;2023-03-01T10:08:24;102268.13;;;7.37;100.00
38812;BME280;24553;51.640;-0.752;2023-03-01T10:10:51;102262.31;;;7.43;100.00
38812;BME280;24553;51.640;-0.752;2023-03-01T10:13:23;102264.13;;;7.42;100.00
38812;BME280;24553;51.640;-0.752;2023-03-01T10:16:10;102262.22;;;7.45;100.00
38812;BME280;24553;51.640;-0.752;2023-03-01T10:18:37;102256.81;;;7.46;100.00
38812;BME280;24553;51.640;-0.752;2023-03-01T10:21:13;102261.19;;;7.57;100.00
38812;BME280;24553;51.640;-0.752;2023-03-01T10:23:40;102258.16;;;7.61;100.00
38812;BME280;24553;51.640;-0.752;2023-03-01T10:28:58;102250.63;;;7.78;100.00
38812;BME280;24553;51.640;-0.752;2023-03-01T10:31:53;102238.53;;;7.75;100.00
38812;BME280;24553;51.640;-0.752;2023-03-01T10:34:27;102238.19;;;7.69;100.00
38812;BME280;24553;51.640;-0.752;2023-03-01T10:36:56;102230.78;;;7.83;100.00
38812;BME280;24553;51.640;-0.752;2023-03-01T10:39:24;102229.50;;;7.78;100.00
38812;BME280;24553;51.640;-0.752;2023-03-01T10:41:54;102224.59;;;7.94;100.00
38812;BME280;24553;51.640;-0.752;2023-03-01T10:44:41;102222.56;;;8.07;100.00
38812;BME280;24553;51.640;-0.752;2023-03-01T10:47:20;102218.13;;;8.08;100.00
38812;BME280;24553;51.640;-0.752;2023-03-01T10:50:04;102217.78;;;8.22;100.00
38812;BME280;24553;51.640;-0.752;2023-03-01T10:57:38;102208.09;;;9.02;100.00
38812;BME280;24553;51.640;-0.752;2023-03-01T11:00:25;102203.91;;;8.90;100.00
38812;BME280;24553;51.640;-0.752;2023-03-01T11:03:02;102194.97;;;8.71;100.00
38812;BME280;24553;51.640;-0.752;2023-03-01T11:05:28;102192.63;;;8.68;100.00
38812;BME280;24553;51.640;-0.752;2023-03-01T11:07:59;102194.00;;;8.63;100.00
38812;BME280;24553;51.640;-0.752;2023-03-01T11:10:27;102186.16;;;8.51;100.00
38812;BME280;24553;51.640;-0.752;2023-03-01T11:12:54;102185.91;;;8.55;100.00
38812;BME280;24553;51.640;-0.752;2023-03-01T11:15:30;102181.47;;;8.65;100.00
38812;BME280;24553;51.640;-0.752;2023-03-01T11:17:56;102188.44;;;8.66;100.00
38812;BME280;24553;51.640;-0.752;2023-03-01T11:20:36;102185.94;;;8.74;100.00
38812;BME280;24553;51.640;-0.752;2023-03-01T11:23:05;102173.69;;;8.63;100.00
38812;BME280;24553;51.640;-0.752;2023-03-01T11:25:37;102172.44;;;8.87;100.00
38812;BME280;24553;51.640;-0.752;2023-03-01T11:28:05;102177.84;;;8.66;100.00
38812;BME280;24553;51.640;-0.752;2023-03-01T11:30:43;102179.34;;;8.39;100.00
38812;BME280;24553;51.640;-0.752;2023-03-01T11:38:29;102184.16;;;8.34;100.00
38812;BME280;24553;51.640;-0.752;2023-03-01T11:41:04;102187.72;;;8.23;100.00
38812;BME280;24553;51.640;-0.752;2023-03-01T11:49:03;102168.50;;;8.42;100.00
38812;BME280;24553;51.640;-0.752;2023-03-01T11:57:00;102162.97;;;8.24;100.00
38812;BME280;24553;51.640;-0.752;2023-03-01T12:05:06;102145.56;;;8.72;100.00
38812;BME280;24553;51.640;-0.752;2023-03-01T12:11:39;102128.16;;;9.18;100.00
38812;BME280;24553;51.640;-0.752;2023-03-01T12:33:13;102086.00;;;9.81;100.00
38812;BME280;24553;51.640;-0.752;2023-03-01T12:36:07;102076.47;;;9.61;100.00
38812;BME280;24553;51.640;-0.752;2023-03-01T12:46:28;102056.47;;;9.39;100.00
38812;BME280;24553;51.640;-0.752;2023-03-01T12:49:11;102052.75;;;9.32;100.00
38812;BME280;24553;51.640;-0.752;2023-03-01T12:51:39;102061.84;;;9.29;100.00
38812;BME280;24553;51.640;-0.752;2023-03-01T12:54:19;102048.09;;;9.06;100.00
38812;BME280;24553;51.640;-0.752;2023-03-01T12:56:47;102045.28;;;9.17;100.00
38812;BME280;24553;51.640;-0.752;2023-03-01T12:59:27;102035.81;;;9.15;100.00
38812;BME280;24553;51.640;-0.752;2023-03-01T13:08:02;102015.66;;;9.97;100.00
38812;BME280;24553;51.640;-0.752;2023-03-01T13:10:43;102008.84;;;10.12;100.00
38812;BME280;24553;51.640;-0.752;2023-03-01T13:13:22;102002.47;;;10.05;100.00
38812;BME280;24553;51.640;-0.752;2023-03-01T13:15:48;102001.94;;;10.01;100.00
38812;BME280;24553;51.640;-0.752;2023-03-01T13:36:10;101968.84;;;10.05;100.00
38812;BME280;24553;51.640;-0.752;2023-03-01T13:44:29;101962.50;;;10.16;100.00
38812;BME280;24553;51.640;-0.752;2023-03-01T13:47:14;101964.00;;;10.01;100.00
38812;BME280;24553;51.640;-0.752;2023-03-01T13:54:46;101960.22;;;9.40;100.00
38812;BME280;24553;51.640;-0.752;2023-03-01T13:57:20;101964.97;;;9.36;100.00
38812;BME280;24553;51.640;-0.752;2023-03-01T13:59:47;101968.34;;;9.56;100.00
38812;BME280;24553;51.640;-0.752;2023-03-01T14:02:13;101954.44;;;9.72;100.00
38812;BME280;24553;51.640;-0.752;2023-03-01T14:04:39;101944.69;;;9.73;100.00
38812;BME280;24553;51.640;-0.752;2023-03-01T14:07:16;101955.97;;;9.93;100.00
38812;BME280;24553;51.640;-0.752;2023-03-01T14:09:44;101955.22;;;10.00;100.00
38812;BME280;24553;51.640;-0.752;2023-03-01T14:15:23;101942.22;;;10.07;100.00
38812;BME280;24553;51.640;-0.752;2023-03-01T14:17:59;101948.41;;;10.16;100.00
38812;BME280;24553;51.640;-0.752;2023-03-01T14:20:30;101941.28;;;9.98;100.00
38812;BME280;24553;51.640;-0.752;2023-03-01T14:22:58;101942.63;;;9.67;100.00
38812;BME280;24553;51.640;-0.752;2023-03-01T14:25:29;101942.78;;;9.65;100.00
38812;BME280;24553;51.640;-0.752;2023-03-01T14:28:03;101933.03;;;9.66;100.00
38812;BME280;24553;51.640;-0.752;2023-03-01T14:30:41;101934.47;;;9.78;100.00
38812;BME280;24553;51.640;-0.752;2023-03-01T14:33:25;101920.53;;;9.94;100.00
38812;BME280;24553;51.640;-0.752;2023-03-01T14:38:47;101913.44;;;10.30;100.00
38812;BME280;24553;51.640;-0.752;2023-03-01T14:41:16;101901.53;;;10.34;100.00
38812;BME280;24553;51.640;-0.752;2023-03-01T14:43:50;101905.63;;;10.11;100.00
38812;BME280;24553;51.640;-0.752;2023-03-01T14:46:40;101908.28;;;9.75;100.00
38812;BME280;24553;51.640;-0.752;2023-03-01T14:51:39;101908.31;;;9.29;100.00
38812;BME280;24553;51.640;-0.752;2023-03-01T14:54:20;101915.59;;;9.17;100.00